createdAt,value
2022-11-20T00:03:02.225Z,6.40
2022-11-20T00:09:45.923Z,6.50
2022-11-20T00:16:32.113Z,6.20
2022-11-20T00:23:14.422Z,6.30
2022-11-20T00:29:56.779Z,6.50
2022-11-20T00:36:39.111Z,6.50
2022-11-20T00:43:21.397Z,6.50
2022-11-20T00:50:04.119Z,6.60
2022-11-20T00:56:46.442Z,6.50
2022-11-20T01:03:31.258Z,6.60
2022-11-20T01:10:13.749Z,6.60
2022-11-20T01:16:56.104Z,6.50
2022-11-20T01:23:40.799Z,7.60
2022-11-20T01:30:23.136Z,6.60
2022-11-20T01:37:05.478Z,6.20
2022-11-20T01:43:47.790Z,6.30
2022-11-20T01:50:30.483Z,6.10
2022-11-20T01:57:14.280Z,6.10
2022-11-20T02:03:57.438Z,6.00
2022-11-20T02:10:40.006Z,6.00
2022-11-20T02:17:22.427Z,6.10
2022-11-20T02:24:13.390Z,6.10
2022-11-20T02:30:55.781Z,6.10
2022-11-20T02:37:41.097Z,6.40
2022-11-20T02:44:23.452Z,6.60
2022-11-20T02:51:05.846Z,6.70
2022-11-20T02:57:48.173Z,6.80
2022-11-20T03:04:30.510Z,6.90
2022-11-20T03:11:12.963Z,6.90
2022-11-20T03:17:56.676Z,6.90
2022-11-20T03:24:39.065Z,7.00
2022-11-20T03:31:29.544Z,7.00
2022-11-20T03:38:11.890Z,7.10
2022-11-20T03:44:54.201Z,7.00
2022-11-20T03:51:37.320Z,7.10
2022-11-20T03:58:19.664Z,7.10
2022-11-20T04:05:02.095Z,7.10
2022-11-20T04:11:44.414Z,7.20
2022-11-20T04:18:26.758Z,7.10
2022-11-20T04:25:09.496Z,7.10
2022-11-20T04:31:51.842Z,7.10
2022-11-20T04:38:34.696Z,7.20
2022-11-20T04:45:17.025Z,7.10
2022-11-20T04:51:59.445Z,7.20
2022-11-20T04:58:42.119Z,7.10
2022-11-20T05:05:24.597Z,7.10
2022-11-20T05:12:08.818Z,7.10
2022-11-20T05:18:53.163Z,6.90
2022-11-20T05:25:35.489Z,7.00
2022-11-20T05:32:17.805Z,7.00
2022-11-20T05:39:01.907Z,7.00
2022-11-20T05:45:52.372Z,7.10
2022-11-20T05:52:34.760Z,7.20
2022-11-20T05:59:17.098Z,7.30
2022-11-20T06:06:04.018Z,7.30
2022-11-20T06:12:46.361Z,7.40
2022-11-20T06:19:28.786Z,7.30
2022-11-20T06:26:16.674Z,7.30
2022-11-20T06:32:58.968Z,7.40
2022-11-20T06:39:41.531Z,7.40
2022-11-20T06:46:23.925Z,7.30
2022-11-20T06:53:06.293Z,7.30
2022-11-20T06:59:48.709Z,7.40
2022-11-20T07:06:31.285Z,7.40
2022-11-20T07:13:13.626Z,7.40
2022-11-20T07:19:56.165Z,7.50
2022-11-20T07:26:38.533Z,7.50
2022-11-20T07:33:21.488Z,7.70
2022-11-20T07:40:04.494Z,7.90
2022-11-20T07:46:46.819Z,8.10
2022-11-20T07:53:29.138Z,8.20
2022-11-20T08:00:12.500Z,8.30
2022-11-20T08:06:54.793Z,8.30
2022-11-20T08:13:55.490Z,8.20
2022-11-20T08:20:38.849Z,8.20
2022-11-20T08:27:24.403Z,8.30
2022-11-20T08:34:09.463Z,8.40
2022-11-20T08:41:10.936Z,8.70
2022-11-20T08:47:53.306Z,8.80
2022-11-20T08:54:35.651Z,9.00
2022-11-20T09:01:18.169Z,9.30
2022-11-20T09:08:00.863Z,9.60
2022-11-20T09:14:43.251Z,9.50
2022-11-20T09:21:25.712Z,9.70
2022-11-20T09:28:08.459Z,9.80
2022-11-20T09:34:51.001Z,9.90
2022-11-20T09:42:00.083Z,9.80
2022-11-20T09:49:07.222Z,9.70
2022-11-20T09:55:50.254Z,9.60
2022-11-20T10:03:03.009Z,9.60
2022-11-20T10:09:55.631Z,9.60
2022-11-20T10:16:59.616Z,9.40
2022-11-20T10:24:14.153Z,9.30
2022-11-20T10:31:03.484Z,9.30
2022-11-20T10:37:49.578Z,9.20
2022-11-20T10:44:56.250Z,9.10
2022-11-20T10:51:42.819Z,9.10
2022-11-20T10:58:48.133Z,9.30
2022-11-20T11:05:47.378Z,9.10
2022-11-20T11:12:30.186Z,9.30
2022-11-20T11:19:15.865Z,9.50
2022-11-20T11:26:00.096Z,9.60
2022-11-20T11:32:46.213Z,9.60
2022-11-20T11:39:33.741Z,10.00
2022-11-20T11:46:33.423Z,10.30
2022-11-20T11:53:18.918Z,10.10
2022-11-20T12:00:11.480Z,10.10
2022-11-20T12:07:18.244Z,10.20
2022-11-20T12:14:16.131Z,10.50
2022-11-20T12:21:17.472Z,10.80
2022-11-20T12:28:19.178Z,10.80
2022-11-20T12:35:11.436Z,10.70
2022-11-20T12:42:24.815Z,10.70
2022-11-20T12:49:22.245Z,10.70
2022-11-20T12:56:44.356Z,10.70
2022-11-20T13:03:55.650Z,10.70
2022-11-20T13:10:51.863Z,10.90
2022-11-20T13:17:48.110Z,10.90
2022-11-20T13:24:32.379Z,10.80
2022-11-20T13:31:36.552Z,10.80
2022-11-20T13:38:18.887Z,10.80
2022-11-20T13:45:12.130Z,11.00
2022-11-20T13:52:16.494Z,11.00
2022-11-20T13:59:20.655Z,10.80
2022-11-20T14:06:07.061Z,10.80
2022-11-20T14:12:49.658Z,10.60
2022-11-20T14:19:32.886Z,10.50
2022-11-20T14:26:21.080Z,10.50
2022-11-20T14:33:05.260Z,10.00
2022-11-20T14:39:53.969Z,9.80
2022-11-20T14:46:36.772Z,9.60
2022-11-20T14:53:25.016Z,9.60
2022-11-20T15:00:16.589Z,9.50
2022-11-20T15:07:00.783Z,9.40
2022-11-20T15:13:43.361Z,9.20
2022-11-20T15:20:29.580Z,9.10
2022-11-20T15:27:12.163Z,9.00
2022-11-20T15:33:54.673Z,8.80
2022-11-20T15:47:33.380Z,8.70
2022-11-20T15:54:21.692Z,8.40
2022-11-20T16:01:04.640Z,8.30
2022-11-20T16:07:46.997Z,8.20
2022-11-20T16:14:47.772Z,8.10
2022-11-20T16:21:33.696Z,8.10
2022-11-20T16:28:19.204Z,8.10
2022-11-20T16:35:02.750Z,8.00
2022-11-20T16:41:45.088Z,8.00
2022-11-20T16:48:27.537Z,8.10
2022-11-20T16:55:10.277Z,8.20
2022-11-20T17:01:52.678Z,8.10
2022-11-20T17:08:35.559Z,8.20
2022-11-20T17:15:18.331Z,8.20
2022-11-20T17:22:01.037Z,8.30
2022-11-20T17:28:47.689Z,8.30
2022-11-20T17:35:30.356Z,8.20
2022-11-20T17:42:29.327Z,8.20
2022-11-20T17:49:11.696Z,8.20
2022-11-20T17:56:16.193Z,8.30
2022-11-20T18:02:59.029Z,8.40
2022-11-20T18:09:41.420Z,8.40
2022-11-20T18:16:24.191Z,8.40
2022-11-20T18:23:06.523Z,8.60
2022-11-20T18:29:51.954Z,8.60
2022-11-20T18:36:34.648Z,8.60
2022-11-20T18:43:35.564Z,8.50
2022-11-20T18:50:19.160Z,8.50
2022-11-20T18:57:01.524Z,8.60
2022-11-20T19:03:43.943Z,8.60
2022-11-20T19:10:27.091Z,8.20
2022-11-20T19:17:13.508Z,8.00
2022-11-20T19:23:58.283Z,8.00
2022-11-20T19:30:41.757Z,8.00
2022-11-20T19:37:25.217Z,8.10
2022-11-20T19:44:12.668Z,8.00
2022-11-20T19:50:55.074Z,7.90
2022-11-20T19:57:37.463Z,7.90
2022-11-20T20:04:19.923Z,7.80
2022-11-20T20:11:18.012Z,7.80
2022-11-20T20:18:00.365Z,7.80
2022-11-20T20:24:42.700Z,7.80
2022-11-20T20:31:27.532Z,7.70
2022-11-20T20:38:10.091Z,7.70
2022-11-20T20:45:07.693Z,7.70
2022-11-20T20:51:50.044Z,7.70
2022-11-20T20:58:32.483Z,7.70
2022-11-20T21:05:17.112Z,7.70
2022-11-20T21:11:59.491Z,7.70
2022-11-20T21:18:42.266Z,7.60
2022-11-20T21:25:24.692Z,7.50
2022-11-20T21:32:07.072Z,7.50
2022-11-20T21:38:51.564Z,7.40
2022-11-20T21:58:59.474Z,7.40
2022-11-20T22:05:41.816Z,7.40
2022-11-20T22:12:24.176Z,7.30
2022-11-20T22:19:07.781Z,7.10
2022-11-20T22:25:50.155Z,7.10
2022-11-20T22:32:32.608Z,7.00
2022-11-20T22:39:15.029Z,7.10
2022-11-20T22:46:07.957Z,7.30
2022-11-20T22:52:50.288Z,7.30
2022-11-20T22:59:32.640Z,7.30
2022-11-20T23:06:16.776Z,7.20
2022-11-20T23:12:59.123Z,7.20
2022-11-20T23:19:41.483Z,7.10
2022-11-20T23:26:26.910Z,7.10
2022-11-20T23:33:09.189Z,7.10
2022-11-20T23:39:51.472Z,7.10
2022-11-20T23:46:34.009Z,7.00
2022-11-20T23:53:17.092Z,7.00
2022-11-20T23:59:59.406Z,6.90
